sensor_id;sensor_type;location;lat;lon;timestamp;temperature;humidity
11126;DHT22;5617;54.046;10.676;2022-11-03T00:00:35;7.40;99.90
11126;DHT22;5617;54.046;10.676;2022-11-03T00:02:44;7.40;99.90
11126;DHT22;5617;54.046;10.676;2022-11-03T00:04:53;7.40;99.90
11126;DHT22;5617;54.046;10.676;2022-11-03T00:07:01;7.40;99.90
11126;DHT22;5617;54.046;10.676;2022-11-03T00:09:13;7.40;99.90
11126;DHT22;5617;54.046;10.676;2022-11-03T00:11:22;7.40;99.90
11126;DHT22;5617;54.046;10.676;2022-11-03T00:13:31;7.40;99.90
11126;DHT22;5617;54.046;10.676;2022-11-03T00:15:47;7.40;99.90
11126;DHT22;5617;54.046;10.676;2022-11-03T00:17:55;7.40;99.90
11126;DHT22;5617;54.046;10.676;2022-11-03T00:20:03;7.40;99.90
11126;DHT22;5617;54.046;10.676;2022-11-03T00:22:11;7.40;99.90
11126;DHT22;5617;54.046;10.676;2022-11-03T00:24:21;7.40;99.90
11126;DHT22;5617;54.046;10.676;2022-11-03T00:26:29;7.40;99.90
11126;DHT22;5617;54.046;10.676;2022-11-03T00:28:38;7.40;99.90
11126;DHT22;5617;54.046;10.676;2022-11-03T00:30:46;7.40;99.90
11126;DHT22;5617;54.046;10.676;2022-11-03T00:32:53;7.40;99.90
11126;DHT22;5617;54.046;10.676;2022-11-03T00:35:01;7.40;99.90
11126;DHT22;5617;54.046;10.676;2022-11-03T00:37:09;7.40;99.90
11126;DHT22;5617;54.046;10.676;2022-11-03T00:39:16;7.40;99.90
11126;DHT22;5617;54.046;10.676;2022-11-03T00:41:26;7.40;99.90
11126;DHT22;5617;54.046;10.676;2022-11-03T00:43:34;7.40;99.90
11126;DHT22;5617;54.046;10.676;2022-11-03T00:45:42;7.40;99.90
11126;DHT22;5617;54.046;10.676;2022-11-03T00:47:50;7.40;99.90
11126;DHT22;5617;54.046;10.676;2022-11-03T00:50:19;7.40;99.90
11126;DHT22;5617;54.046;10.676;2022-11-03T00:52:27;7.50;99.90
11126;DHT22;5617;54.046;10.676;2022-11-03T00:54:34;7.50;99.90
11126;DHT22;5617;54.046;10.676;2022-11-03T00:56:45;7.40;99.90
11126;DHT22;5617;54.046;10.676;2022-11-03T00:58:53;7.50;99.90
11126;DHT22;5617;54.046;10.676;2022-11-03T01:01:03;7.50;99.90
11126;DHT22;5617;54.046;10.676;2022-11-03T01:03:12;7.50;99.90
11126;DHT22;5617;54.046;10.676;2022-11-03T01:05:20;7.50;99.90
11126;DHT22;5617;54.046;10.676;2022-11-03T01:07:45;7.50;99.90
11126;DHT22;5617;54.046;10.676;2022-11-03T01:09:53;7.50;99.90
11126;DHT22;5617;54.046;10.676;2022-11-03T01:12:04;7.50;99.90
11126;DHT22;5617;54.046;10.676;2022-11-03T01:14:13;7.50;99.90
11126;DHT22;5617;54.046;10.676;2022-11-03T01:16:21;7.50;99.90
11126;DHT22;5617;54.046;10.676;2022-11-03T01:18:30;7.50;99.90
11126;DHT22;5617;54.046;10.676;2022-11-03T01:20:38;7.50;99.90
11126;DHT22;5617;54.046;10.676;2022-11-03T01:22:45;7.50;99.90
11126;DHT22;5617;54.046;10.676;2022-11-03T01:24:54;7.50;99.90
11126;DHT22;5617;54.046;10.676;2022-11-03T01:27:03;7.50;99.90
11126;DHT22;5617;54.046;10.676;2022-11-03T01:29:11;7.50;99.90
11126;DHT22;5617;54.046;10.676;2022-11-03T01:31:20;7.50;99.90
11126;DHT22;5617;54.046;10.676;2022-11-03T01:33:28;7.60;99.90
11126;DHT22;5617;54.046;10.676;2022-11-03T01:35:35;7.60;99.90
11126;DHT22;5617;54.046;10.676;2022-11-03T01:37:43;7.60;99.90
11126;DHT22;5617;54.046;10.676;2022-11-03T01:39:51;7.60;99.90
11126;DHT22;5617;54.046;10.676;2022-11-03T01:41:58;7.60;99.90
11126;DHT22;5617;54.046;10.676;2022-11-03T01:44:34;7.60;99.90
11126;DHT22;5617;54.046;10.676;2022-11-03T01:46:46;7.60;99.90
11126;DHT22;5617;54.046;10.676;2022-11-03T01:48:58;7.70;99.90
11126;DHT22;5617;54.046;10.676;2022-11-03T01:51:07;7.70;99.90
11126;DHT22;5617;54.046;10.676;2022-11-03T01:53:17;7.70;99.90
11126;DHT22;5617;54.046;10.676;2022-11-03T01:55:27;7.70;99.90
11126;DHT22;5617;54.046;10.676;2022-11-03T01:57:38;7.70;99.90
11126;DHT22;5617;54.046;10.676;2022-11-03T01:59:48;7.80;99.90
11126;DHT22;5617;54.046;10.676;2022-11-03T02:01:56;7.70;99.90
11126;DHT22;5617;54.046;10.676;2022-11-03T02:04:09;7.80;99.90
11126;DHT22;5617;54.046;10.676;2022-11-03T02:06:19;7.80;99.90
11126;DHT22;5617;54.046;10.676;2022-11-03T02:08:33;7.80;99.90
11126;DHT22;5617;54.046;10.676;2022-11-03T02:10:42;7.90;99.90
11126;DHT22;5617;54.046;10.676;2022-11-03T02:12:50;8.00;99.90
11126;DHT22;5617;54.046;10.676;2022-11-03T02:15:02;7.90;99.90
11126;DHT22;5617;54.046;10.676;2022-11-03T02:17:13;7.90;99.90
11126;DHT22;5617;54.046;10.676;2022-11-03T02:19:30;7.90;99.90
11126;DHT22;5617;54.046;10.676;2022-11-03T02:21:44;7.90;99.90
11126;DHT22;5617;54.046;10.676;2022-11-03T02:23:59;7.90;99.90
11126;DHT22;5617;54.046;10.676;2022-11-03T02:26:12;7.90;99.90
11126;DHT22;5617;54.046;10.676;2022-11-03T02:28:22;7.90;99.90
11126;DHT22;5617;54.046;10.676;2022-11-03T02:30:34;7.90;99.90
11126;DHT22;5617;54.046;10.676;2022-11-03T02:32:54;7.90;99.90
11126;DHT22;5617;54.046;10.676;2022-11-03T02:35:07;7.90;99.90
11126;DHT22;5617;54.046;10.676;2022-11-03T02:37:20;7.90;99.90
11126;DHT22;5617;54.046;10.676;2022-11-03T02:39:31;7.90;99.90
11126;DHT22;5617;54.046;10.676;2022-11-03T02:41:42;8.00;99.90
11126;DHT22;5617;54.046;10.676;2022-11-03T02:43:52;8.00;99.90
11126;DHT22;5617;54.046;10.676;2022-11-03T02:46:03;8.00;99.90
11126;DHT22;5617;54.046;10.676;2022-11-03T02:48:13;8.00;99.90
11126;DHT22;5617;54.046;10.676;2022-11-03T02:50:25;8.00;99.90
11126;DHT22;5617;54.046;10.676;2022-11-03T02:52:35;8.00;99.90
11126;DHT22;5617;54.046;10.676;2022-11-03T02:54:45;8.00;99.90
11126;DHT22;5617;54.046;10.676;2022-11-03T02:56:58;8.00;99.90
11126;DHT22;5617;54.046;10.676;2022-11-03T02:59:10;8.00;99.90
11126;DHT22;5617;54.046;10.676;2022-11-03T03:01:23;8.00;99.90
11126;DHT22;5617;54.046;10.676;2022-11-03T03:03:35;8.00;99.90
11126;DHT22;5617;54.046;10.676;2022-11-03T03:05:44;8.00;99.90
11126;DHT22;5617;54.046;10.676;2022-11-03T03:07:58;8.00;99.90
11126;DHT22;5617;54.046;10.676;2022-11-03T03:10:10;8.00;99.90
11126;DHT22;5617;54.046;10.676;2022-11-03T03:12:23;8.00;99.90
11126;DHT22;5617;54.046;10.676;2022-11-03T03:14:36;8.00;99.90
11126;DHT22;5617;54.046;10.676;2022-11-03T03:16:49;8.00;99.90
11126;DHT22;5617;54.046;10.676;2022-11-03T03:19:03;8.10;99.90
11126;DHT22;5617;54.046;10.676;2022-11-03T03:21:18;8.10;99.90
11126;DHT22;5617;54.046;10.676;2022-11-03T03:23:30;8.10;99.90
11126;DHT22;5617;54.046;10.676;2022-11-03T03:25:46;8.10;99.90
11126;DHT22;5617;54.046;10.676;2022-11-03T03:27:59;8.10;99.90
11126;DHT22;5617;54.046;10.676;2022-11-03T03:30:10;8.10;99.90
11126;DHT22;5617;54.046;10.676;2022-11-03T03:32:21;8.10;99.90
11126;DHT22;5617;54.046;10.676;2022-11-03T03:34:31;8.10;99.90
11126;DHT22;5617;54.046;10.676;2022-11-03T03:36:41;8.10;99.90
11126;DHT22;5617;54.046;10.676;2022-11-03T03:38:54;8.10;99.90
11126;DHT22;5617;54.046;10.676;2022-11-03T03:41:03;8.10;99.90
11126;DHT22;5617;54.046;10.676;2022-11-03T03:43:13;8.10;99.90
11126;DHT22;5617;54.046;10.676;2022-11-03T03:45:23;8.10;99.90
11126;DHT22;5617;54.046;10.676;2022-11-03T03:47:32;8.10;99.90
11126;DHT22;5617;54.046;10.676;2022-11-03T03:49:40;8.10;99.90
11126;DHT22;5617;54.046;10.676;2022-11-03T03:51:49;8.10;99.90
11126;DHT22;5617;54.046;10.676;2022-11-03T03:53:57;8.10;99.90
11126;DHT22;5617;54.046;10.676;2022-11-03T03:56:08;8.10;99.90
11126;DHT22;5617;54.046;10.676;2022-11-03T03:58:17;8.10;99.90
11126;DHT22;5617;54.046;10.676;2022-11-03T04:00:25;8.10;99.90
11126;DHT22;5617;54.046;10.676;2022-11-03T04:02:33;8.10;99.90
11126;DHT22;5617;54.046;10.676;2022-11-03T04:04:41;8.10;99.90
11126;DHT22;5617;54.046;10.676;2022-11-03T04:06:49;8.10;99.90
11126;DHT22;5617;54.046;10.676;2022-11-03T04:09:18;8.00;99.90
11126;DHT22;5617;54.046;10.676;2022-11-03T04:11:26;8.00;99.90
11126;DHT22;5617;54.046;10.676;2022-11-03T04:13:53;8.00;99.90
11126;DHT22;5617;54.046;10.676;2022-11-03T04:16:18;8.00;99.90
11126;DHT22;5617;54.046;10.676;2022-11-03T04:18:44;8.00;99.90
11126;DHT22;5617;54.046;10.676;2022-11-03T04:21:12;8.00;99.90
11126;DHT22;5617;54.046;10.676;2022-11-03T04:23:38;8.00;99.90
11126;DHT22;5617;54.046;10.676;2022-11-03T04:25:56;8.00;99.90
11126;DHT22;5617;54.046;10.676;2022-11-03T04:28:08;7.90;99.90
11126;DHT22;5617;54.046;10.676;2022-11-03T04:30:20;7.90;99.90
11126;DHT22;5617;54.046;10.676;2022-11-03T04:32:33;7.90;99.90
11126;DHT22;5617;54.046;10.676;2022-11-03T04:34:43;7.90;99.90
11126;DHT22;5617;54.046;10.676;2022-11-03T04:36:53;7.90;99.90
11126;DHT22;5617;54.046;10.676;2022-11-03T04:39:14;7.90;99.90
11126;DHT22;5617;54.046;10.676;2022-11-03T04:41:29;7.90;99.90
11126;DHT22;5617;54.046;10.676;2022-11-03T04:43:38;7.90;99.90
11126;DHT22;5617;54.046;10.676;2022-11-03T04:46:04;7.80;99.90
11126;DHT22;5617;54.046;10.676;2022-11-03T04:48:15;7.80;99.90
11126;DHT22;5617;54.046;10.676;2022-11-03T04:50:27;7.80;99.90
11126;DHT22;5617;54.046;10.676;2022-11-03T04:52:35;7.80;99.90
11126;DHT22;5617;54.046;10.676;2022-11-03T04:54:49;7.80;99.90
11126;DHT22;5617;54.046;10.676;2022-11-03T04:57:04;7.80;99.90
11126;DHT22;5617;54.046;10.676;2022-11-03T04:59:15;7.80;99.90
11126;DHT22;5617;54.046;10.676;2022-11-03T05:01:26;7.80;99.90
11126;DHT22;5617;54.046;10.676;2022-11-03T05:03:36;7.80;99.90
11126;DHT22;5617;54.046;10.676;2022-11-03T05:05:45;7.80;99.90
11126;DHT22;5617;54.046;10.676;2022-11-03T05:07:55;7.70;99.90
11126;DHT22;5617;54.046;10.676;2022-11-03T05:10:04;7.70;99.90
11126;DHT22;5617;54.046;10.676;2022-11-03T05:12:12;7.70;99.90
11126;DHT22;5617;54.046;10.676;2022-11-03T05:14:23;7.70;99.90
11126;DHT22;5617;54.046;10.676;2022-11-03T05:16:34;7.70;99.90
11126;DHT22;5617;54.046;10.676;2022-11-03T05:18:46;7.70;99.90
11126;DHT22;5617;54.046;10.676;2022-11-03T05:20:58;7.70;99.90
11126;DHT22;5617;54.046;10.676;2022-11-03T05:23:09;7.70;99.90
11126;DHT22;5617;54.046;10.676;2022-11-03T05:25:32;7.70;99.90
11126;DHT22;5617;54.046;10.676;2022-11-03T05:27:41;7.60;99.90
11126;DHT22;5617;54.046;10.676;2022-11-03T05:29:58;7.60;99.90
11126;DHT22;5617;54.046;10.676;2022-11-03T05:32:18;7.60;99.90
11126;DHT22;5617;54.046;10.676;2022-11-03T05:34:34;7.60;99.90
11126;DHT22;5617;54.046;10.676;2022-11-03T05:36:41;7.60;99.90
11126;DHT22;5617;54.046;10.676;2022-11-03T05:38:54;7.60;99.90
11126;DHT22;5617;54.046;10.676;2022-11-03T05:41:10;7.60;99.90
11126;DHT22;5617;54.046;10.676;2022-11-03T05:43:20;7.60;99.90
11126;DHT22;5617;54.046;10.676;2022-11-03T05:45:30;7.60;99.90
11126;DHT22;5617;54.046;10.676;2022-11-03T05:47:41;7.60;99.90
11126;DHT22;5617;54.046;10.676;2022-11-03T05:49:51;7.60;99.90
11126;DHT22;5617;54.046;10.676;2022-11-03T05:52:01;7.60;99.90
11126;DHT22;5617;54.046;10.676;2022-11-03T05:54:15;7.60;99.90
11126;DHT22;5617;54.046;10.676;2022-11-03T05:56:26;7.60;99.90
11126;DHT22;5617;54.046;10.676;2022-11-03T05:58:36;7.60;99.90
11126;DHT22;5617;54.046;10.676;2022-11-03T06:00:44;7.60;99.90
11126;DHT22;5617;54.046;10.676;2022-11-03T06:02:54;7.60;99.90
11126;DHT22;5617;54.046;10.676;2022-11-03T06:05:02;7.60;99.90
11126;DHT22;5617;54.046;10.676;2022-11-03T06:07:23;7.60;99.90
11126;DHT22;5617;54.046;10.676;2022-11-03T06:09:32;7.60;99.90
11126;DHT22;5617;54.046;10.676;2022-11-03T06:11:40;7.60;99.90
11126;DHT22;5617;54.046;10.676;2022-11-03T06:13:48;7.60;99.90
11126;DHT22;5617;54.046;10.676;2022-11-03T06:16:00;7.60;99.90
11126;DHT22;5617;54.046;10.676;2022-11-03T06:18:13;7.60;99.90
11126;DHT22;5617;54.046;10.676;2022-11-03T06:20:22;7.60;99.90
11126;DHT22;5617;54.046;10.676;2022-11-03T06:22:34;7.60;99.90
11126;DHT22;5617;54.046;10.676;2022-11-03T06:24:43;7.60;99.90
11126;DHT22;5617;54.046;10.676;2022-11-03T06:26:51;7.60;99.90
11126;DHT22;5617;54.046;10.676;2022-11-03T06:28:59;7.60;99.90
11126;DHT22;5617;54.046;10.676;2022-11-03T06:31:13;7.60;99.90
11126;DHT22;5617;54.046;10.676;2022-11-03T06:33:27;7.60;99.90
11126;DHT22;5617;54.046;10.676;2022-11-03T06:35:35;7.60;99.90
11126;DHT22;5617;54.046;10.676;2022-11-03T06:37:43;7.70;99.90
11126;DHT22;5617;54.046;10.676;2022-11-03T06:39:56;7.60;99.90
11126;DHT22;5617;54.046;10.676;2022-11-03T06:42:12;7.70;99.90
11126;DHT22;5617;54.046;10.676;2022-11-03T06:44:23;7.70;99.90
11126;DHT22;5617;54.046;10.676;2022-11-03T06:46:31;7.70;99.90
11126;DHT22;5617;54.046;10.676;2022-11-03T06:48:41;7.70;99.90
11126;DHT22;5617;54.046;10.676;2022-11-03T06:50:48;7.80;99.90
11126;DHT22;5617;54.046;10.676;2022-11-03T06:52:57;7.80;99.90
11126;DHT22;5617;54.046;10.676;2022-11-03T06:55:21;7.80;99.90
11126;DHT22;5617;54.046;10.676;2022-11-03T06:57:32;7.80;99.90
11126;DHT22;5617;54.046;10.676;2022-11-03T06:59:41;7.80;99.90
11126;DHT22;5617;54.046;10.676;2022-11-03T07:01:53;7.80;99.90
11126;DHT22;5617;54.046;10.676;2022-11-03T07:04:12;8.00;99.90
11126;DHT22;5617;54.046;10.676;2022-11-03T07:06:23;7.90;99.90
11126;DHT22;5617;54.046;10.676;2022-11-03T07:08:35;7.90;99.90
11126;DHT22;5617;54.046;10.676;2022-11-03T07:10:43;8.00;99.90
11126;DHT22;5617;54.046;10.676;2022-11-03T07:12:51;8.00;99.90
11126;DHT22;5617;54.046;10.676;2022-11-03T07:15:00;8.10;99.90
11126;DHT22;5617;54.046;10.676;2022-11-03T07:17:15;8.10;99.90
11126;DHT22;5617;54.046;10.676;2022-11-03T07:19:26;8.10;99.90
11126;DHT22;5617;54.046;10.676;2022-11-03T07:21:39;8.20;99.90
11126;DHT22;5617;54.046;10.676;2022-11-03T07:23:47;8.20;99.90
11126;DHT22;5617;54.046;10.676;2022-11-03T07:25:57;8.30;99.90
11126;DHT22;5617;54.046;10.676;2022-11-03T07:28:09;8.30;99.90
11126;DHT22;5617;54.046;10.676;2022-11-03T07:30:19;8.30;99.90
11126;DHT22;5617;54.046;10.676;2022-11-03T07:32:31;8.40;99.90
11126;DHT22;5617;54.046;10.676;2022-11-03T07:34:41;8.40;99.90
11126;DHT22;5617;54.046;10.676;2022-11-03T07:36:49;8.50;99.90
11126;DHT22;5617;54.046;10.676;2022-11-03T07:39:00;8.50;99.90
11126;DHT22;5617;54.046;10.676;2022-11-03T07:41:11;8.70;99.90
11126;DHT22;5617;54.046;10.676;2022-11-03T07:43:27;8.70;99.90
11126;DHT22;5617;54.046;10.676;2022-11-03T07:45:40;8.70;99.90
11126;DHT22;5617;54.046;10.676;2022-11-03T07:47:49;8.70;99.90
11126;DHT22;5617;54.046;10.676;2022-11-03T07:49:59;8.80;99.90
11126;DHT22;5617;54.046;10.676;2022-11-03T07:52:08;8.80;99.90
11126;DHT22;5617;54.046;10.676;2022-11-03T07:54:20;8.80;99.90
11126;DHT22;5617;54.046;10.676;2022-11-03T07:56:34;8.90;99.90
11126;DHT22;5617;54.046;10.676;2022-11-03T07:58:46;8.90;99.90
11126;DHT22;5617;54.046;10.676;2022-11-03T08:00:55;9.00;99.90
11126;DHT22;5617;54.046;10.676;2022-11-03T08:03:04;9.00;99.90
11126;DHT22;5617;54.046;10.676;2022-11-03T08:05:13;9.10;99.90
11126;DHT22;5617;54.046;10.676;2022-11-03T08:07:21;9.10;99.90
11126;DHT22;5617;54.046;10.676;2022-11-03T08:09:29;9.20;99.90
11126;DHT22;5617;54.046;10.676;2022-11-03T08:11:36;9.20;99.90
11126;DHT22;5617;54.046;10.676;2022-11-03T08:13:44;9.40;99.90
11126;DHT22;5617;54.046;10.676;2022-11-03T08:15:52;9.30;99.90
11126;DHT22;5617;54.046;10.676;2022-11-03T08:17:59;9.30;99.90
11126;DHT22;5617;54.046;10.676;2022-11-03T08:20:08;9.40;99.90
11126;DHT22;5617;54.046;10.676;2022-11-03T08:22:17;9.40;99.90
11126;DHT22;5617;54.046;10.676;2022-11-03T08:24:25;9.50;99.90
11126;DHT22;5617;54.046;10.676;2022-11-03T08:26:33;9.50;99.90
11126;DHT22;5617;54.046;10.676;2022-11-03T08:28:41;9.60;99.90
11126;DHT22;5617;54.046;10.676;2022-11-03T08:30:49;9.60;99.90
11126;DHT22;5617;54.046;10.676;2022-11-03T08:32:56;9.70;99.90
11126;DHT22;5617;54.046;10.676;2022-11-03T08:35:05;9.70;99.90
11126;DHT22;5617;54.046;10.676;2022-11-03T08:37:13;9.80;99.90
11126;DHT22;5617;54.046;10.676;2022-11-03T08:39:22;9.80;99.90
11126;DHT22;5617;54.046;10.676;2022-11-03T08:41:30;9.80;99.90
11126;DHT22;5617;54.046;10.676;2022-11-03T08:43:37;9.90;99.90
11126;DHT22;5617;54.046;10.676;2022-11-03T08:45:45;9.90;99.90
11126;DHT22;5617;54.046;10.676;2022-11-03T08:47:53;10.00;99.90
11126;DHT22;5617;54.046;10.676;2022-11-03T08:50:01;10.00;99.90
11126;DHT22;5617;54.046;10.676;2022-11-03T08:52:09;10.00;99.90
11126;DHT22;5617;54.046;10.676;2022-11-03T08:54:17;10.00;99.90
11126;DHT22;5617;54.046;10.676;2022-11-03T08:56:26;10.10;99.90
11126;DHT22;5617;54.046;10.676;2022-11-03T08:58:34;10.10;99.90
11126;DHT22;5617;54.046;10.676;2022-11-03T09:00:41;10.20;99.90
11126;DHT22;5617;54.046;10.676;2022-11-03T09:02:49;10.20;99.90
11126;DHT22;5617;54.046;10.676;2022-11-03T09:04:57;10.20;99.90
11126;DHT22;5617;54.046;10.676;2022-11-03T09:07:05;10.20;99.90
11126;DHT22;5617;54.046;10.676;2022-11-03T09:09:12;10.30;99.90
11126;DHT22;5617;54.046;10.676;2022-11-03T09:11:21;10.30;99.90
11126;DHT22;5617;54.046;10.676;2022-11-03T09:13:30;10.30;99.90
11126;DHT22;5617;54.046;10.676;2022-11-03T09:15:38;10.40;99.90
11126;DHT22;5617;54.046;10.676;2022-11-03T09:17:46;10.40;99.90
11126;DHT22;5617;54.046;10.676;2022-11-03T09:19:53;10.40;99.90
11126;DHT22;5617;54.046;10.676;2022-11-03T09:22:01;10.50;99.90
11126;DHT22;5617;54.046;10.676;2022-11-03T09:24:09;10.50;99.90
11126;DHT22;5617;54.046;10.676;2022-11-03T09:26:16;10.50;99.90
11126;DHT22;5617;54.046;10.676;2022-11-03T09:28:24;10.50;99.90
11126;DHT22;5617;54.046;10.676;2022-11-03T09:30:33;10.60;99.90
11126;DHT22;5617;54.046;10.676;2022-11-03T09:32:41;10.60;99.90
11126;DHT22;5617;54.046;10.676;2022-11-03T09:34:49;10.70;99.90
11126;DHT22;5617;54.046;10.676;2022-11-03T09:36:57;10.70;99.90
11126;DHT22;5617;54.046;10.676;2022-11-03T09:39:04;10.80;99.90
11126;DHT22;5617;54.046;10.676;2022-11-03T09:41:12;10.80;99.90
11126;DHT22;5617;54.046;10.676;2022-11-03T09:43:23;10.80;99.90
11126;DHT22;5617;54.046;10.676;2022-11-03T09:45:32;10.90;99.90
11126;DHT22;5617;54.046;10.676;2022-11-03T09:47:42;10.90;99.90
11126;DHT22;5617;54.046;10.676;2022-11-03T09:49:51;11.00;99.90
11126;DHT22;5617;54.046;10.676;2022-11-03T09:51:59;11.00;99.90
11126;DHT22;5617;54.046;10.676;2022-11-03T09:54:12;11.10;99.90
11126;DHT22;5617;54.046;10.676;2022-11-03T09:56:21;11.20;99.90
11126;DHT22;5617;54.046;10.676;2022-11-03T09:58:29;11.20;99.90
11126;DHT22;5617;54.046;10.676;2022-11-03T10:00:40;11.20;99.90
11126;DHT22;5617;54.046;10.676;2022-11-03T10:02:49;11.30;99.90
11126;DHT22;5617;54.046;10.676;2022-11-03T10:04:58;11.30;99.90
11126;DHT22;5617;54.046;10.676;2022-11-03T10:07:11;11.40;99.90
11126;DHT22;5617;54.046;10.676;2022-11-03T10:09:19;11.50;99.90
11126;DHT22;5617;54.046;10.676;2022-11-03T10:11:28;11.60;99.90
11126;DHT22;5617;54.046;10.676;2022-11-03T10:13:39;11.60;99.90
11126;DHT22;5617;54.046;10.676;2022-11-03T10:15:49;11.70;99.90
11126;DHT22;5617;54.046;10.676;2022-11-03T10:17:57;11.70;99.90
11126;DHT22;5617;54.046;10.676;2022-11-03T10:20:05;11.80;99.90
11126;DHT22;5617;54.046;10.676;2022-11-03T10:22:16;11.80;99.90
11126;DHT22;5617;54.046;10.676;2022-11-03T10:24:24;11.90;99.90
11126;DHT22;5617;54.046;10.676;2022-11-03T10:26:42;11.90;99.90
11126;DHT22;5617;54.046;10.676;2022-11-03T10:28:58;12.00;99.90
11126;DHT22;5617;54.046;10.676;2022-11-03T10:31:18;12.10;99.90
11126;DHT22;5617;54.046;10.676;2022-11-03T10:33:28;12.20;99.90
11126;DHT22;5617;54.046;10.676;2022-11-03T10:35:36;12.30;99.90
11126;DHT22;5617;54.046;10.676;2022-11-03T10:37:46;12.30;99.90
11126;DHT22;5617;54.046;10.676;2022-11-03T10:39:55;12.30;99.90
11126;DHT22;5617;54.046;10.676;2022-11-03T10:42:03;12.40;99.90
11126;DHT22;5617;54.046;10.676;2022-11-03T10:44:17;12.50;99.90
11126;DHT22;5617;54.046;10.676;2022-11-03T10:46:26;12.60;99.90
11126;DHT22;5617;54.046;10.676;2022-11-03T10:48:34;12.70;99.90
11126;DHT22;5617;54.046;10.676;2022-11-03T10:50:42;12.80;99.90
11126;DHT22;5617;54.046;10.676;2022-11-03T10:52:50;12.90;99.90
11126;DHT22;5617;54.046;10.676;2022-11-03T10:54:59;12.90;99.90
11126;DHT22;5617;54.046;10.676;2022-11-03T10:57:07;13.00;99.90
11126;DHT22;5617;54.046;10.676;2022-11-03T10:59:16;13.10;99.90
11126;DHT22;5617;54.046;10.676;2022-11-03T11:01:26;13.20;99.90
11126;DHT22;5617;54.046;10.676;2022-11-03T11:03:38;13.20;99.90
11126;DHT22;5617;54.046;10.676;2022-11-03T11:05:48;13.20;99.90
11126;DHT22;5617;54.046;10.676;2022-11-03T11:07:58;13.20;99.90
11126;DHT22;5617;54.046;10.676;2022-11-03T11:10:10;13.30;99.90
11126;DHT22;5617;54.046;10.676;2022-11-03T11:12:21;13.30;99.90
11126;DHT22;5617;54.046;10.676;2022-11-03T11:14:35;13.40;99.90
11126;DHT22;5617;54.046;10.676;2022-11-03T11:16:51;13.40;99.90
11126;DHT22;5617;54.046;10.676;2022-11-03T11:18:59;13.50;99.90
11126;DHT22;5617;54.046;10.676;2022-11-03T11:23:49;13.50;99.90
11126;DHT22;5617;54.046;10.676;2022-11-03T11:26:05;13.60;99.90
11126;DHT22;5617;54.046;10.676;2022-11-03T11:28:19;13.70;99.90
11126;DHT22;5617;54.046;10.676;2022-11-03T11:30:55;13.80;99.90
11126;DHT22;5617;54.046;10.676;2022-11-03T11:33:13;13.90;99.90
11126;DHT22;5617;54.046;10.676;2022-11-03T11:36:04;14.10;99.90
11126;DHT22;5617;54.046;10.676;2022-11-03T11:38:53;14.10;99.90
11126;DHT22;5617;54.046;10.676;2022-11-03T11:41:01;14.10;99.90
11126;DHT22;5617;54.046;10.676;2022-11-03T11:43:25;14.00;99.90
11126;DHT22;5617;54.046;10.676;2022-11-03T11:48:20;14.10;99.90
11126;DHT22;5617;54.046;10.676;2022-11-03T11:50:28;14.20;99.90
11126;DHT22;5617;54.046;10.676;2022-11-03T11:52:40;14.20;99.90
11126;DHT22;5617;54.046;10.676;2022-11-03T11:54:49;14.30;99.90
11126;DHT22;5617;54.046;10.676;2022-11-03T11:56:57;14.40;99.90
11126;DHT22;5617;54.046;10.676;2022-11-03T11:59:11;14.40;99.90
11126;DHT22;5617;54.046;10.676;2022-11-03T12:01:21;14.50;99.90
11126;DHT22;5617;54.046;10.676;2022-11-03T12:03:35;14.50;99.90
11126;DHT22;5617;54.046;10.676;2022-11-03T12:05:48;14.50;99.90
11126;DHT22;5617;54.046;10.676;2022-11-03T12:07:56;14.50;99.90
11126;DHT22;5617;54.046;10.676;2022-11-03T12:10:07;14.60;99.90
11126;DHT22;5617;54.046;10.676;2022-11-03T12:12:33;14.60;99.90
11126;DHT22;5617;54.046;10.676;2022-11-03T12:14:42;14.70;99.90
11126;DHT22;5617;54.046;10.676;2022-11-03T12:16:50;14.60;99.90
11126;DHT22;5617;54.046;10.676;2022-11-03T12:19:33;14.60;99.90
11126;DHT22;5617;54.046;10.676;2022-11-03T12:21:46;14.60;99.90
11126;DHT22;5617;54.046;10.676;2022-11-03T12:23:54;14.70;99.90
11126;DHT22;5617;54.046;10.676;2022-11-03T12:26:02;14.70;99.90
11126;DHT22;5617;54.046;10.676;2022-11-03T12:28:10;14.80;99.90
11126;DHT22;5617;54.046;10.676;2022-11-03T12:30:36;14.80;99.90
11126;DHT22;5617;54.046;10.676;2022-11-03T12:32:45;14.90;99.90
11126;DHT22;5617;54.046;10.676;2022-11-03T12:34:55;14.80;99.90
11126;DHT22;5617;54.046;10.676;2022-11-03T12:37:02;14.90;99.90
11126;DHT22;5617;54.046;10.676;2022-11-03T12:39:10;14.80;99.90
11126;DHT22;5617;54.046;10.676;2022-11-03T12:41:18;14.80;99.90
11126;DHT22;5617;54.046;10.676;2022-11-03T12:43:30;14.70;99.90
11126;DHT22;5617;54.046;10.676;2022-11-03T12:45:37;14.70;99.90
11126;DHT22;5617;54.046;10.676;2022-11-03T12:47:46;14.60;99.90
11126;DHT22;5617;54.046;10.676;2022-11-03T12:49:55;14.60;99.90
11126;DHT22;5617;54.046;10.676;2022-11-03T12:52:03;14.50;99.90
11126;DHT22;5617;54.046;10.676;2022-11-03T12:54:12;14.40;99.90
11126;DHT22;5617;54.046;10.676;2022-11-03T12:56:20;14.30;99.90
11126;DHT22;5617;54.046;10.676;2022-11-03T12:58:28;14.30;99.90
11126;DHT22;5617;54.046;10.676;2022-11-03T13:00:35;14.30;99.90
11126;DHT22;5617;54.046;10.676;2022-11-03T13:02:43;14.30;99.90
11126;DHT22;5617;54.046;10.676;2022-11-03T13:04:51;14.30;99.90
11126;DHT22;5617;54.046;10.676;2022-11-03T13:07:01;14.30;99.90
11126;DHT22;5617;54.046;10.676;2022-11-03T13:09:08;14.30;99.90
11126;DHT22;5617;54.046;10.676;2022-11-03T13:11:16;14.30;99.90
11126;DHT22;5617;54.046;10.676;2022-11-03T13:13:41;14.30;99.90
11126;DHT22;5617;54.046;10.676;2022-11-03T13:15:49;14.20;99.90
11126;DHT22;5617;54.046;10.676;2022-11-03T13:17:58;14.20;99.90
11126;DHT22;5617;54.046;10.676;2022-11-03T13:20:07;14.20;99.90
11126;DHT22;5617;54.046;10.676;2022-11-03T13:22:16;14.20;99.90
11126;DHT22;5617;54.046;10.676;2022-11-03T13:24:24;14.20;99.90
11126;DHT22;5617;54.046;10.676;2022-11-03T13:26:32;14.10;99.90
11126;DHT22;5617;54.046;10.676;2022-11-03T13:28:40;14.00;99.90
11126;DHT22;5617;54.046;10.676;2022-11-03T13:30:47;14.00;99.90
11126;DHT22;5617;54.046;10.676;2022-11-03T13:32:55;14.00;99.90
11126;DHT22;5617;54.046;10.676;2022-11-03T13:35:04;14.00;99.90
11126;DHT22;5617;54.046;10.676;2022-11-03T13:37:12;14.10;99.90
11126;DHT22;5617;54.046;10.676;2022-11-03T13:39:21;14.00;99.90
11126;DHT22;5617;54.046;10.676;2022-11-03T13:41:29;14.00;99.90
11126;DHT22;5617;54.046;10.676;2022-11-03T13:43:36;14.00;99.90
11126;DHT22;5617;54.046;10.676;2022-11-03T13:45:44;13.90;99.90
11126;DHT22;5617;54.046;10.676;2022-11-03T13:47:52;13.90;99.90
11126;DHT22;5617;54.046;10.676;2022-11-03T13:50:00;13.90;99.90
11126;DHT22;5617;54.046;10.676;2022-11-03T13:52:08;13.90;99.90
11126;DHT22;5617;54.046;10.676;2022-11-03T13:54:15;13.80;99.90
11126;DHT22;5617;54.046;10.676;2022-11-03T13:56:24;13.80;99.90
11126;DHT22;5617;54.046;10.676;2022-11-03T13:58:32;13.70;99.90
11126;DHT22;5617;54.046;10.676;2022-11-03T14:00:39;13.70;99.90